ΕΜΥ, Εθνική Μετεωρολογική Υπηρεσία - Δελτία Καιρού, Προγνώσεις

ΑΕΡΟΝΑΥΤΙΛΙΑ

GREEK AIRPORTS CODES

EUROPEAN AIRPORTS CODES

LIRF 200320Z 08003KT 2500 R16L/1400U R16R/P1500N R25/P1500NR34R/P1500N BR NSC 18/17 Q1016 NOSIG=